Time;durP1;ratioP1;P1;durP2;ratioP2;P2;SDS_P1;SDS_P2;PMS_P1;PMS_P2;Temp;Humidity;BMP_temperature;BMP_pressure;BME280_temperature;BME280_humidity;BME280_pressure;Samples;Min_cycle;Max_cycle;Signal;HPM_P1;HPM_P2
2023/08/12 00:00:31;;;;;;;7.65;3.17;;;;;;;;;;5071134;28;20384;-70
2023/08/12 00:02:58;;;;;;;6.38;3.05;;;;;;;;;;5070927;28;20033;-70
2023/08/12 00:05:24;;;;;;;3.95;2.70;;;;;;;;;;5070309;28;20017;-70
2023/08/12 00:07:50;;;;;;;3.90;2.75;;;;;;;;;;5081801;28;20035;-71
2023/08/12 00:10:15;;;;;;;5.07;2.67;;;;;;;;;;5091145;28;20032;-70
2023/08/12 00:12:41;;;;;;;3.58;3.03;;;;;;;;;;5081751;28;20033;-70
2023/08/12 00:15:09;;;;;;;3.60;2.78;;;;;;;;;;5070703;28;20501;-71
2023/08/12 00:17:37;;;;;;;4.35;3.00;;;;;;;;;;5079373;28;20036;-70
2023/08/12 00:20:06;;;;;;;4.22;2.95;;;;;;;;;;5090984;28;20027;-70
2023/08/12 00:22:32;;;;;;;4.18;2.97;;;;;;;;;;5091067;28;20381;-70
2023/08/12 00:24:57;;;;;;;5.63;2.92;;;;;;;;;;5090861;28;20077;-70
2023/08/12 00:27:23;;;;;;;5.30;2.97;;;;;;;;;;5090579;28;20081;-70
2023/08/12 00:29:49;;;;;;;6.55;3.35;;;;;;;;;;5085691;28;20154;-70
2023/08/12 00:32:15;;;;;;;4.95;2.72;;;;;;;;;;5074694;28;20035;-70
2023/08/12 00:34:40;;;;;;;5.80;3.40;;;;;;;;;;5053752;28;20035;-71
2023/08/12 00:37:06;;;;;;;4.65;2.88;;;;;;;;;;5070132;28;20035;-69
2023/08/12 00:39:32;;;;;;;3.42;2.60;;;;;;;;;;5070467;28;20556;-69
2023/08/12 00:41:57;;;;;;;4.97;3.03;;;;;;;;;;5070053;28;20032;-70
2023/08/12 00:44:23;;;;;;;6.13;2.80;;;;;;;;;;5069679;28;20043;-70
2023/08/12 00:46:50;;;;;;;3.47;2.80;;;;;;;;;;5052270;28;20101;-71
2023/08/12 00:49:16;;;;;;;5.72;2.92;;;;;;;;;;5048858;28;20029;-70
2023/08/12 00:51:45;;;;;;;6.07;2.92;;;;;;;;;;5048747;28;20053;-70
2023/08/12 00:54:14;;;;;;;6.28;3.17;;;;;;;;;;5068218;28;20262;-70
2023/08/12 00:56:41;;;;;;;7.03;2.92;;;;;;;;;;5035571;28;20039;-70
2023/08/12 00:59:08;;;;;;;5.35;3.00;;;;;;;;;;5051845;28;20039;-70
2023/08/12 01:01:35;;;;;;;5.43;2.90;;;;;;;;;;5066709;28;20039;-71
2023/08/12 01:04:02;;;;;;;5.80;2.90;;;;;;;;;;5075431;28;20028;-70
2023/08/12 01:06:30;;;;;;;5.38;3.10;;;;;;;;;;5069220;28;20055;-70
2023/08/12 01:08:56;;;;;;;3.35;2.85;;;;;;;;;;5086320;28;20089;-70
2023/08/12 01:11:31;;;;;;;6.60;3.08;;;;;;;;;;5089795;28;20147;-70
2023/08/12 01:14:13;;;;;;;5.93;3.60;;;;;;;;;;5071051;28;20042;-70
2023/08/12 01:16:43;;;;;;;5.47;3.00;;;;;;;;;;5087611;28;20473;-70
2023/08/12 01:19:15;;;;;;;3.83;2.85;;;;;;;;;;5068512;28;20040;-70
2023/08/12 01:21:43;;;;;;;4.15;2.80;;;;;;;;;;5069918;28;20047;-70
2023/08/12 01:24:09;;;;;;;3.40;2.65;;;;;;;;;;5069590;28;20107;-70
2023/08/12 01:26:35;;;;;;;6.18;2.80;;;;;;;;;;5086453;28;20047;-70
2023/08/12 01:29:01;;;;;;;5.80;3.53;;;;;;;;;;5070145;28;20469;-69
2023/08/12 01:31:41;;;;;;;4.32;3.25;;;;;;;;;;5091011;28;20063;-70
2023/08/12 01:34:45;;;;;;;3.80;2.90;;;;;;;;;;5072701;28;20032;-69
2023/08/12 01:37:22;;;;;;;5.07;2.97;;;;;;;;;;5045055;28;20040;-69
2023/08/12 01:39:49;;;;;;;3.85;3.17;;;;;;;;;;5080665;28;20032;-68
2023/08/12 01:42:18;;;;;;;6.55;3.13;;;;;;;;;;5069412;28;20027;-70
2023/08/12 01:44:44;;;;;;;4.60;3.20;;;;;;;;;;5069684;28;20060;-70
2023/08/12 01:47:09;;;;;;;4.00;3.20;;;;;;;;;;5073407;28;20083;-70
2023/08/12 01:49:37;;;;;;;5.88;3.20;;;;;;;;;;5075455;28;20040;-70
2023/08/12 01:52:03;;;;;;;3.60;3.00;;;;;;;;;;5071512;28;20095;-71
2023/08/12 01:54:33;;;;;;;10.27;4.00;;;;;;;;;;5069101;28;20552;-71
2023/08/12 01:57:05;;;;;;;7.72;3.67;;;;;;;;;;5070988;28;20391;-70
2023/08/12 01:59:35;;;;;;;7.53;4.00;;;;;;;;;;5068984;28;20514;-71
2023/08/12 02:02:00;;;;;;;9.02;5.13;;;;;;;;;;5072934;28;20052;-70
2023/08/12 02:04:26;;;;;;;4.93;3.83;;;;;;;;;;5061692;28;20441;-71
2023/08/12 02:06:53;;;;;;;3.95;3.20;;;;;;;;;;5067298;28;20055;-71
2023/08/12 02:09:19;;;;;;;5.10;3.13;;;;;;;;;;5042235;28;20486;-70
2023/08/12 02:11:45;;;;;;;4.68;3.40;;;;;;;;;;5054779;28;20040;-70
2023/08/12 02:14:11;;;;;;;6.43;3.50;;;;;;;;;;5071618;28;20406;-71
2023/08/12 02:16:37;;;;;;;5.03;2.92;;;;;;;;;;5054613;28;20115;-70
2023/08/12 02:19:03;;;;;;;6.38;3.40;;;;;;;;;;5054835;28;20111;-70
2023/08/12 02:21:29;;;;;;;5.72;3.30;;;;;;;;;;5071551;28;20396;-71
2023/08/12 02:23:54;;;;;;;4.65;3.15;;;;;;;;;;5066694;28;20028;-70
2023/08/12 02:26:20;;;;;;;4.00;3.17;;;;;;;;;;5074379;28;20027;-70
2023/08/12 02:28:47;;;;;;;4.22;3.25;;;;;;;;;;5074490;28;20754;-70
2023/08/12 02:31:16;;;;;;;5.95;3.60;;;;;;;;;;5093056;28;20040;-70
2023/08/12 02:33:42;;;;;;;4.35;3.47;;;;;;;;;;5073900;28;20058;-70
2023/08/12 02:36:08;;;;;;;5.75;3.28;;;;;;;;;;5074291;28;20447;-70
2023/08/12 02:38:34;;;;;;;5.30;3.17;;;;;;;;;;5092514;28;20261;-70
2023/08/12 02:40:59;;;;;;;8.07;3.72;;;;;;;;;;5074355;28;20040;-70
2023/08/12 02:43:25;;;;;;;6.75;3.60;;;;;;;;;;5090761;28;20024;-69
2023/08/12 02:45:51;;;;;;;4.85;3.50;;;;;;;;;;5092336;28;20031;-70
2023/08/12 02:48:17;;;;;;;4.63;3.50;;;;;;;;;;5074034;28;20065;-70
2023/08/12 02:50:43;;;;;;;6.32;3.45;;;;;;;;;;5074404;28;20032;-70
2023/08/12 02:53:09;;;;;;;4.43;3.60;;;;;;;;;;5087931;28;20464;-71
2023/08/12 02:55:36;;;;;;;5.65;3.83;;;;;;;;;;5071064;28;20051;-71
2023/08/12 02:58:03;;;;;;;4.47;3.53;;;;;;;;;;5056812;28;20030;-71
2023/08/12 03:00:29;;;;;;;5.65;3.95;;;;;;;;;;5092102;28;20035;-71
2023/08/12 03:02:54;;;;;;;3.85;3.45;;;;;;;;;;5055308;28;20028;-70
2023/08/12 03:05:21;;;;;;;4.80;3.60;;;;;;;;;;5053534;28;20037;-71
2023/08/12 03:07:47;;;;;;;6.28;3.65;;;;;;;;;;5053835;28;20530;-71
2023/08/12 03:10:13;;;;;;;4.10;3.63;;;;;;;;;;5053710;28;20047;-69
2023/08/12 03:12:39;;;;;;;4.90;3.40;;;;;;;;;;5053515;28;20024;-70
2023/08/12 03:15:07;;;;;;;4.95;3.40;;;;;;;;;;5072180;28;20123;-70
2023/08/12 03:17:32;;;;;;;5.38;3.33;;;;;;;;;;5092060;28;20388;-70
2023/08/12 03:20:04;;;;;;;4.20;3.30;;;;;;;;;;5090500;28;20152;-70
2023/08/12 03:22:31;;;;;;;5.93;3.35;;;;;;;;;;5075613;28;20074;-70
2023/08/12 03:24:57;;;;;;;7.30;3.53;;;;;;;;;;5070053;28;20461;-69
2023/08/12 03:27:23;;;;;;;6.70;3.55;;;;;;;;;;5073578;28;20104;-70
2023/08/12 03:29:50;;;;;;;4.93;3.40;;;;;;;;;;5091212;28;20031;-70
2023/08/12 03:32:16;;;;;;;4.13;3.47;;;;;;;;;;5053559;28;20036;-71
2023/08/12 03:34:42;;;;;;;4.15;3.55;;;;;;;;;;5071499;28;20078;-70
2023/08/12 03:37:10;;;;;;;4.10;3.13;;;;;;;;;;5053320;28;20374;-70
2023/08/12 03:39:35;;;;;;;5.78;3.58;;;;;;;;;;5050257;28;20024;-70
2023/08/12 03:42:01;;;;;;;6.45;3.80;;;;;;;;;;5073333;28;20031;-70
2023/08/12 03:44:28;;;;;;;5.00;3.67;;;;;;;;;;5090880;28;20051;-70
2023/08/12 03:46:55;;;;;;;5.07;3.58;;;;;;;;;;5073362;28;20032;-70
2023/08/12 03:49:21;;;;;;;4.45;3.33;;;;;;;;;;5073157;28;20035;-71
2023/08/12 03:51:47;;;;;;;7.50;3.75;;;;;;;;;;5106749;28;20044;-69
2023/08/12 03:54:12;;;;;;;5.72;3.67;;;;;;;;;;5077911;28;20097;-71
2023/08/12 03:56:39;;;;;;;7.05;3.75;;;;;;;;;;5051284;28;20095;-70
2023/08/12 03:59:05;;;;;;;6.57;3.40;;;;;;;;;;5051415;28;20517;-70
2023/08/12 04:01:31;;;;;;;9.75;4.03;;;;;;;;;;5071126;28;20115;-70
2023/08/12 04:03:56;;;;;;;6.88;3.42;;;;;;;;;;5070853;28;20048;-68
2023/08/12 04:06:22;;;;;;;6.25;3.58;;;;;;;;;;5052812;28;20158;-70
2023/08/12 04:08:48;;;;;;;9.43;3.28;;;;;;;;;;5057224;28;20024;-70
2023/08/12 04:11:14;;;;;;;4.65;3.15;;;;;;;;;;5073002;28;20110;-69
2023/08/12 04:13:40;;;;;;;5.55;3.53;;;;;;;;;;5072133;28;20020;-70
2023/08/12 04:16:06;;;;;;;4.65;3.72;;;;;;;;;;5090771;28;20089;-69
2023/08/12 04:18:31;;;;;;;5.82;3.08;;;;;;;;;;5072447;28;20024;-70
2023/08/12 04:20:59;;;;;;;6.10;3.13;;;;;;;;;;5072801;28;20164;-70
2023/08/12 04:23:24;;;;;;;7.35;4.00;;;;;;;;;;5071310;28;20051;-69
2023/08/12 04:25:53;;;;;;;6.03;3.30;;;;;;;;;;5070478;28;20044;-70
2023/08/12 04:28:21;;;;;;;4.57;3.30;;;;;;;;;;5052546;28;20032;-69
2023/08/12 04:30:50;;;;;;;5.53;3.22;;;;;;;;;;5072499;28;20119;-71
2023/08/12 04:33:16;;;;;;;6.38;2.88;;;;;;;;;;5072112;28;20401;-70
2023/08/12 04:35:43;;;;;;;7.93;3.53;;;;;;;;;;5071694;28;20032;-70
2023/08/12 04:38:11;;;;;;;4.75;2.80;;;;;;;;;;5072654;28;20038;-69
2023/08/12 04:40:44;;;;;;;5.97;3.47;;;;;;;;;;5062839;28;20044;-69
2023/08/12 04:43:13;;;;;;;4.03;2.70;;;;;;;;;;5073743;28;20051;-69
2023/08/12 04:45:44;;;;;;;4.88;2.90;;;;;;;;;;5060193;28;20028;-69
2023/08/12 04:48:11;;;;;;;5.40;3.38;;;;;;;;;;5079502;28;20036;-69
2023/08/12 04:50:38;;;;;;;8.73;3.70;;;;;;;;;;5060917;28;20051;-70
2023/08/12 04:53:05;;;;;;;5.47;3.33;;;;;;;;;;5066474;28;20036;-69
2023/08/12 04:55:31;;;;;;;4.88;3.22;;;;;;;;;;5063312;28;20028;-70
2023/08/12 04:57:59;;;;;;;10.63;3.53;;;;;;;;;;5087827;28;20036;-71
2023/08/12 05:00:24;;;;;;;10.68;3.08;;;;;;;;;;5059547;28;20020;-68
2023/08/12 05:02:51;;;;;;;8.13;4.93;;;;;;;;;;5060557;28;20028;-70
2023/08/12 05:05:17;;;;;;;5.30;3.47;;;;;;;;;;5069025;28;20079;-70
2023/08/12 05:07:44;;;;;;;5.68;2.95;;;;;;;;;;5053856;28;20032;-71
2023/08/12 05:10:11;;;;;;;3.65;3.22;;;;;;;;;;5053410;28;20032;-70
2023/08/12 05:12:37;;;;;;;8.30;3.38;;;;;;;;;;5053785;28;20028;-70
2023/08/12 05:15:03;;;;;;;6.78;2.95;;;;;;;;;;5072004;28;20486;-69
2023/08/12 05:17:29;;;;;;;7.82;3.50;;;;;;;;;;5053948;28;20032;-70
2023/08/12 05:19:56;;;;;;;9.48;3.65;;;;;;;;;;5053649;28;20028;-69
2023/08/12 05:22:22;;;;;;;5.68;3.42;;;;;;;;;;5070553;28;20033;-69
2023/08/12 05:24:48;;;;;;;5.28;3.10;;;;;;;;;;5053696;28;20039;-69
2023/08/12 05:27:14;;;;;;;6.63;3.40;;;;;;;;;;5070343;28;20521;-69
2023/08/12 05:29:41;;;;;;;4.97;3.00;;;;;;;;;;5071491;28;20023;-69
2023/08/12 05:32:07;;;;;;;8.18;3.65;;;;;;;;;;5071050;28;20040;-69
2023/08/12 05:34:32;;;;;;;5.18;3.20;;;;;;;;;;5071387;28;20544;-69
2023/08/12 05:36:58;;;;;;;5.00;2.88;;;;;;;;;;5071343;28;20032;-69
2023/08/12 05:39:23;;;;;;;8.23;2.97;;;;;;;;;;5071208;28;20044;-69
2023/08/12 05:41:50;;;;;;;6.35;3.00;;;;;;;;;;5071479;28;20460;-69
2023/08/12 05:44:16;;;;;;;14.05;3.47;;;;;;;;;;5071437;28;20028;-70
2023/08/12 05:46:42;;;;;;;7.47;3.13;;;;;;;;;;5071209;28;20024;-70
2023/08/12 05:49:07;;;;;;;9.63;2.97;;;;;;;;;;5070603;28;20034;-70
2023/08/12 05:51:33;;;;;;;10.73;3.60;;;;;;;;;;5070644;28;20086;-70
2023/08/12 05:53:59;;;;;;;11.45;3.47;;;;;;;;;;5052979;28;20394;-69
2023/08/12 05:56:24;;;;;;;6.07;3.33;;;;;;;;;;5075403;28;20063;-69
2023/08/12 05:58:50;;;;;;;6.47;3.15;;;;;;;;;;5079402;28;20020;-70
2023/08/12 06:01:16;;;;;;;5.18;2.90;;;;;;;;;;5080418;28;20523;-69
2023/08/12 06:03:41;;;;;;;11.48;2.95;;;;;;;;;;5080475;28;20019;-70
2023/08/12 06:06:07;;;;;;;4.90;2.70;;;;;;;;;;5078491;28;20036;-69
2023/08/12 06:08:33;;;;;;;6.97;3.38;;;;;;;;;;5081092;28;20020;-69
2023/08/12 06:10:58;;;;;;;6.35;3.10;;;;;;;;;;5079910;28;20041;-69
2023/08/12 06:13:24;;;;;;;4.75;2.67;;;;;;;;;;5080881;28;20021;-69
2023/08/12 06:15:50;;;;;;;7.20;2.97;;;;;;;;;;5081330;28;20028;-69
2023/08/12 06:18:15;;;;;;;6.18;2.55;;;;;;;;;;5079140;28;20521;-70
2023/08/12 06:20:41;;;;;;;4.63;2.50;;;;;;;;;;5077289;28;20029;-69
2023/08/12 06:23:07;;;;;;;5.57;2.33;;;;;;;;;;5079974;28;20020;-68
2023/08/12 06:25:32;;;;;;;9.10;2.50;;;;;;;;;;5079498;28;20032;-70
2023/08/12 06:27:58;;;;;;;3.38;2.40;;;;;;;;;;5080302;28;20396;-71
2023/08/12 06:30:24;;;;;;;5.60;2.30;;;;;;;;;;5080782;28;20442;-71
2023/08/12 06:32:49;;;;;;;4.63;2.53;;;;;;;;;;5064669;28;20473;-70
2023/08/12 06:35:15;;;;;;;4.78;2.55;;;;;;;;;;5084668;28;20046;-70
2023/08/12 06:37:41;;;;;;;6.50;2.55;;;;;;;;;;5065929;28;20073;-71
2023/08/12 06:40:07;;;;;;;3.38;2.55;;;;;;;;;;5084156;28;20116;-71
2023/08/12 06:42:33;;;;;;;9.50;2.90;;;;;;;;;;5061875;28;20454;-70
2023/08/12 06:45:00;;;;;;;6.55;2.70;;;;;;;;;;5084098;28;20060;-71
2023/08/12 06:47:27;;;;;;;5.15;2.47;;;;;;;;;;5082548;28;20023;-70
2023/08/12 06:49:53;;;;;;;6.13;2.22;;;;;;;;;;5080974;28;20039;-71
2023/08/12 06:52:19;;;;;;;3.42;2.38;;;;;;;;;;5086233;28;20031;-71
2023/08/12 06:54:45;;;;;;;4.43;2.60;;;;;;;;;;5081371;28;20393;-70
2023/08/12 06:57:11;;;;;;;4.82;2.50;;;;;;;;;;5082298;28;20024;-71
2023/08/12 06:59:38;;;;;;;4.78;2.40;;;;;;;;;;5084419;28;20049;-71
2023/08/12 07:02:04;;;;;;;4.78;2.15;;;;;;;;;;5084222;28;20028;-70
2023/08/12 07:04:30;;;;;;;5.35;2.47;;;;;;;;;;5080753;28;20041;-69
2023/08/12 07:06:55;;;;;;;5.45;2.65;;;;;;;;;;5082251;28;20020;-71
2023/08/12 07:09:21;;;;;;;2.92;2.22;;;;;;;;;;5083127;28;20385;-72
2023/08/12 07:11:48;;;;;;;4.72;2.90;;;;;;;;;;5081605;28;20524;-71
2023/08/12 07:14:14;;;;;;;5.03;2.28;;;;;;;;;;5081036;28;20088;-71
2023/08/12 07:16:40;;;;;;;4.60;2.20;;;;;;;;;;5081214;28;20047;-71
2023/08/12 07:19:05;;;;;;;4.68;2.03;;;;;;;;;;5077466;28;20045;-71
2023/08/12 07:21:31;;;;;;;5.03;2.28;;;;;;;;;;5073238;28;20020;-71
2023/08/12 07:23:57;;;;;;;2.63;1.95;;;;;;;;;;5078869;28;20044;-70
2023/08/12 07:26:22;;;;;;;3.60;1.90;;;;;;;;;;5072131;28;20398;-71
2023/08/12 07:28:48;;;;;;;2.58;1.92;;;;;;;;;;5070939;28;20437;-70
2023/08/12 07:31:14;;;;;;;3.08;1.92;;;;;;;;;;5054409;28;20032;-70
2023/08/12 07:33:40;;;;;;;3.50;1.90;;;;;;;;;;5072462;28;20117;-72
2023/08/12 07:36:05;;;;;;;4.20;2.25;;;;;;;;;;5072076;28;20032;-72
2023/08/12 07:38:31;;;;;;;2.97;1.80;;;;;;;;;;5072906;28;20029;-70
2023/08/12 07:40:57;;;;;;;3.42;1.80;;;;;;;;;;5072393;28;20094;-71
2023/08/12 07:43:23;;;;;;;5.85;2.30;;;;;;;;;;5071751;28;20103;-71
2023/08/12 07:45:55;;;;;;;2.70;1.95;;;;;;;;;;5072071;28;20390;-71
2023/08/12 07:48:21;;;;;;;3.67;2.03;;;;;;;;;;5072117;28;20051;-71
2023/08/12 07:50:50;;;;;;;3.58;1.95;;;;;;;;;;5071408;28;20455;-71
2023/08/12 07:53:15;;;;;;;3.90;2.10;;;;;;;;;;5069372;28;20124;-71
2023/08/12 07:55:42;;;;;;;3.45;1.95;;;;;;;;;;5069723;28;20024;-70
2023/08/12 07:58:08;;;;;;;4.10;2.30;;;;;;;;;;5071827;28;20045;-70
2023/08/12 08:00:34;;;;;;;3.58;1.92;;;;;;;;;;5058575;28;20401;-71
2023/08/12 08:02:59;;;;;;;3.78;2.03;;;;;;;;;;5053752;28;20028;-71
2023/08/12 08:05:25;;;;;;;4.75;2.17;;;;;;;;;;5053520;28;20084;-69
2023/08/12 08:07:51;;;;;;;5.05;2.05;;;;;;;;;;5072184;28;20041;-71
2023/08/12 08:10:16;;;;;;;4.15;2.05;;;;;;;;;;5071734;28;20024;-70
2023/08/12 08:12:42;;;;;;;3.15;2.00;;;;;;;;;;5048539;28;20044;-69
2023/08/12 08:15:08;;;;;;;3.08;2.20;;;;;;;;;;5071660;28;20028;-71
2023/08/12 08:17:34;;;;;;;3.03;2.08;;;;;;;;;;5048583;28;20036;-70
2023/08/12 08:20:00;;;;;;;4.05;2.10;;;;;;;;;;5052578;28;20383;-69
2023/08/12 08:22:25;;;;;;;3.20;2.00;;;;;;;;;;5053690;28;20166;-69
2023/08/12 08:24:51;;;;;;;4.32;2.13;;;;;;;;;;5066288;28;20021;-69
2023/08/12 08:27:17;;;;;;;5.47;2.25;;;;;;;;;;5050559;28;20029;-69
2023/08/12 08:29:42;;;;;;;3.30;2.15;;;;;;;;;;5067965;28;20428;-70
2023/08/12 08:32:08;;;;;;;3.10;1.90;;;;;;;;;;5069850;28;20036;-70
2023/08/12 08:34:34;;;;;;;3.17;2.00;;;;;;;;;;5070895;28;20111;-71
2023/08/12 08:37:00;;;;;;;3.05;2.15;;;;;;;;;;5067377;28;20530;-70
2023/08/12 08:39:26;;;;;;;4.20;2.03;;;;;;;;;;5067314;28;20252;-72
2023/08/12 08:41:53;;;;;;;3.95;2.03;;;;;;;;;;5052769;28;20070;-71
2023/08/12 08:44:22;;;;;;;4.30;2.33;;;;;;;;;;5070293;28;20024;-72
2023/08/12 08:46:52;;;;;;;3.30;1.98;;;;;;;;;;5070457;28;20032;-73
2023/08/12 08:49:18;;;;;;;3.72;2.10;;;;;;;;;;5068398;28;20024;-72
2023/08/12 08:51:46;;;;;;;2.92;2.20;;;;;;;;;;5071158;28;20031;-70
2023/08/12 08:54:13;;;;;;;4.70;1.67;;;;;;;;;;5070594;28;20032;-71
2023/08/12 08:56:39;;;;;;;3.92;1.85;;;;;;;;;;5074222;28;20123;-70
2023/08/12 08:59:04;;;;;;;5.18;2.30;;;;;;;;;;5070049;28;20192;-71
2023/08/12 09:01:31;;;;;;;3.15;1.60;;;;;;;;;;5069773;28;20496;-71
2023/08/12 09:03:57;;;;;;;3.53;1.95;;;;;;;;;;5070902;28;20090;-71
2023/08/12 09:06:29;;;;;;;3.95;1.90;;;;;;;;;;5071129;28;20474;-72
2023/08/12 09:08:55;;;;;;;2.88;1.73;;;;;;;;;;5071476;28;20112;-71
2023/08/12 09:11:21;;;;;;;4.25;1.40;;;;;;;;;;5071451;28;20024;-72
2023/08/12 09:13:48;;;;;;;3.20;2.15;;;;;;;;;;5069833;28;20159;-71
2023/08/12 09:16:14;;;;;;;3.38;1.70;;;;;;;;;;5071222;28;20035;-70
2023/08/12 09:18:42;;;;;;;2.33;1.90;;;;;;;;;;5071480;28;20059;-70
2023/08/12 09:21:09;;;;;;;3.88;1.85;;;;;;;;;;5071075;28;20390;-70
2023/08/12 09:23:39;;;;;;;2.65;1.80;;;;;;;;;;5071351;28;20138;-69
2023/08/12 09:26:16;;;;;;;3.30;1.88;;;;;;;;;;5072795;28;20051;-70
2023/08/12 09:28:42;;;;;;;3.00;2.00;;;;;;;;;;5073438;28;20517;-71
2023/08/12 09:31:21;;;;;;;2.30;1.80;;;;;;;;;;5071334;28;20060;-72
2023/08/12 09:33:46;;;;;;;2.80;2.05;;;;;;;;;;5070967;28;20036;-69
2023/08/12 09:36:12;;;;;;;2.72;1.67;;;;;;;;;;5070664;28;20050;-70
2023/08/12 09:38:38;;;;;;;4.15;2.05;;;;;;;;;;5071538;28;20070;-73
2023/08/12 09:41:04;;;;;;;5.25;2.28;;;;;;;;;;5071248;28;20035;-71
2023/08/12 09:43:31;;;;;;;2.67;1.80;;;;;;;;;;5051889;28;20070;-72
2023/08/12 09:46:00;;;;;;;3.47;1.80;;;;;;;;;;5070896;28;20079;-71
2023/08/12 09:48:26;;;;;;;3.78;2.90;;;;;;;;;;5071264;28;20078;-71
2023/08/12 09:50:53;;;;;;;5.22;2.22;;;;;;;;;;5071149;28;20027;-71
2023/08/12 09:53:21;;;;;;;3.20;1.95;;;;;;;;;;5070074;28;20029;-71
2023/08/12 09:55:49;;;;;;;2.95;2.10;;;;;;;;;;5071299;28;20055;-72
2023/08/12 09:58:17;;;;;;;3.83;1.70;;;;;;;;;;5071387;28;20056;-71
2023/08/12 10:00:45;;;;;;;4.53;1.85;;;;;;;;;;5070499;28;20051;-71
2023/08/12 10:03:14;;;;;;;3.83;2.20;;;;;;;;;;5071194;28;20076;-70
2023/08/12 10:05:40;;;;;;;4.97;1.92;;;;;;;;;;5085434;28;20028;-70
2023/08/12 10:08:07;;;;;;;3.65;1.70;;;;;;;;;;5074937;28;20044;-71
2023/08/12 10:10:35;;;;;;;4.53;2.42;;;;;;;;;;5073952;28;20020;-71
2023/08/12 10:13:01;;;;;;;2.65;1.80;;;;;;;;;;5073281;28;20541;-70
2023/08/12 10:15:27;;;;;;;3.03;1.90;;;;;;;;;;5072913;28;20362;-70
2023/08/12 10:17:55;;;;;;;3.10;1.98;;;;;;;;;;5074107;28;20033;-71
2023/08/12 10:20:24;;;;;;;3.67;2.13;;;;;;;;;;5074522;28;20021;-71
2023/08/12 10:22:50;;;;;;;3.20;1.95;;;;;;;;;;5090136;28;20478;-71
2023/08/12 10:25:21;;;;;;;4.03;1.80;;;;;;;;;;5056411;28;20107;-71
2023/08/12 10:27:48;;;;;;;4.28;2.10;;;;;;;;;;5075109;28;20040;-70
2023/08/12 10:30:14;;;;;;;4.95;1.58;;;;;;;;;;5090221;28;20028;-70
2023/08/12 10:32:40;;;;;;;2.58;1.77;;;;;;;;;;5074301;28;20507;-71
2023/08/12 10:35:08;;;;;;;2.85;1.92;;;;;;;;;;5074137;28;20111;-71
2023/08/12 10:37:34;;;;;;;3.15;2.20;;;;;;;;;;5073570;28;20149;-71
2023/08/12 10:40:07;;;;;;;3.05;1.55;;;;;;;;;;5072893;28;20035;-69
2023/08/12 10:42:41;;;;;;;;;;;;;;;;;;5074695;28;20144;-70
2023/08/12 10:45:06;;;;;;;;;;;;;;;;;;5073871;28;20095;-71
2023/08/12 10:47:34;;;;;;;;;;;;;;;;;;5075127;28;19909;-71
2023/08/12 10:50:01;;;;;;;;;;;;;;;;;;5074556;28;19913;-69
2023/08/12 10:52:27;;;;;;;;;;;;;;;;;;5074165;28;19916;-70
2023/08/12 10:54:52;;;;;;;;;;;;;;;;;;5073899;28;19913;-70
2023/08/12 10:57:18;;;;;;;;;;;;;;;;;;5073939;28;19913;-68
2023/08/12 10:59:47;;;;;;;;;;;;;;;;;;5074710;28;19916;-70
2023/08/12 11:02:17;;;;;;;;;;;;;;;;;;5073149;28;19915;-70
2023/08/12 11:04:43;;;;;;;;;;;;;;;;;;5074479;28;20281;-69
2023/08/12 11:07:18;;;;;;;;;;;;;;;;;;5074513;28;19916;-69
2023/08/12 11:09:45;;;;;;;;;;;;;;;;;;5074435;28;19912;-71
2023/08/12 11:12:13;;;;;;;;;;;;;;;;;;5074570;28;20289;-72
2023/08/12 11:15:08;;;;;;;;;;;;;;;;;;5074282;28;20333;-70
2023/08/12 11:17:35;;;;;;;;;;;;;;;;;;5055884;28;20293;-70
2023/08/12 11:20:04;;;;;;;;;;;;;;;;;;5074319;28;19913;-70
2023/08/12 11:22:30;;;;;;;;;;;;;;;;;;5073714;28;20282;-71
2023/08/12 11:24:56;;;;;;;;;;;;;;;;;;5072334;28;19908;-70
2023/08/12 11:27:22;;;;;;;;;;;;;;;;;;5072907;28;19919;-70
2023/08/12 11:29:49;;;;;;;;;;;;;;;;;;5073897;28;19961;-71
2023/08/12 11:32:15;;;;;;;;;;;;;;;;;;5073952;28;20339;-71
2023/08/12 11:34:40;;;;;;;;;;;;;;;;;;5072789;28;20015;-71
2023/08/12 11:37:06;;;;;;;;;;;;;;;;;;5074341;28;19912;-70
2023/08/12 11:39:31;;;;;;;;;;;;;;;;;;5074046;28;19908;-69
2023/08/12 11:41:57;;;;;;;;;;;;;;;;;;5073790;28;19914;-70
2023/08/12 11:44:23;;;;;;;;;;;;;;;;;;5073709;28;20441;-71
2023/08/12 11:46:49;;;;;;;;;;;;;;;;;;5073786;28;19919;-70
2023/08/12 11:49:15;;;;;;;;;;;;;;;;;;5074051;28;19908;-70
2023/08/12 11:51:41;;;;;;;;;;;;;;;;;;5074340;28;19938;-69
2023/08/12 11:54:07;;;;;;;;;;;;;;;;;;5074083;28;19924;-70
2023/08/12 11:56:33;;;;;;;;;;;;;;;;;;5073726;28;19920;-70
2023/08/12 11:58:59;;;;;;;;;;;;;;;;;;5073788;28;19927;-71
2023/08/12 12:01:24;;;;;;;;;;;;;;;;;;5073662;28;20288;-71
2023/08/12 12:03:53;;;;;;;;;;;;;;;;;;5055743;28;19912;-69
2023/08/12 12:06:27;;;;;;;;;;;;;;;;;;5073555;28;19912;-71
2023/08/12 12:08:54;;;;;;;;;;;;;;;;;;5073664;28;19919;-69
2023/08/12 12:11:19;;;;;;;;;;;;;;;;;;5073283;28;20361;-69
2023/08/12 12:13:47;;;;;;;;;;;;;;;;;;5055447;28;19917;-70
2023/08/12 12:16:12;;;;;;;;;;;;;;;;;;5055608;28;19908;-69
2023/08/12 12:18:38;;;;;;;;;;;;;;;;;;5073340;28;19935;-69
2023/08/12 12:21:03;;;;;;;;;;;;;;;;;;5055377;28;19960;-69
2023/08/12 12:23:31;;;;;;;;;;;;;;;;;;5073256;28;19912;-70
2023/08/12 12:26:01;;;;;;;;;;;;;;;;;;5072480;28;19912;-70
2023/08/12 12:28:27;;;;;;;;;;;;;;;;;;5071268;28;20384;-69
2023/08/12 12:30:52;;;;;;;;;;;;;;;;;;5073091;28;19908;-69
2023/08/12 12:33:18;;;;;;;;;;;;;;;;;;5073069;28;19931;-70
2023/08/12 12:35:44;;;;;;;;;;;;;;;;;;5073135;28;19912;-70
2023/08/12 12:38:09;;;;;;;;;;;;;;;;;;5073236;28;19919;-70
2023/08/12 12:40:35;;;;;;;;;;;;;;;;;;5073215;28;20009;-69
2023/08/12 12:43:00;;;;;;;;;;;;;;;;;;5073152;28;19958;-71
2023/08/12 12:45:26;;;;;;;;;;;;;;;;;;5073008;28;19912;-69
2023/08/12 12:47:51;;;;;;;;;;;;;;;;;;5073007;28;20311;-70
2023/08/12 12:50:17;;;;;;;;;;;;;;;;;;5072871;28;19918;-70
2023/08/12 12:52:42;;;;;;;;;;;;;;;;;;5072889;28;19923;-70
2023/08/12 12:55:08;;;;;;;;;;;;;;;;;;5055023;28;19908;-70
2023/08/12 12:57:34;;;;;;;;;;;;;;;;;;5072759;28;19919;-71
2023/08/12 13:00:00;;;;;;;;;;;;;;;;;;5071696;28;20259;-71
2023/08/12 13:02:26;;;;;;;;;;;;;;;;;;5072584;28;19912;-72
2023/08/12 13:04:52;;;;;;;;;;;;;;;;;;5072275;28;20392;-71
2023/08/12 13:07:18;;;;;;;;;;;;;;;;;;5055002;28;19912;-71
2023/08/12 13:09:43;;;;;;;;;;;;;;;;;;5073279;28;19909;-71
2023/08/12 13:12:09;;;;;;;;;;;;;;;;;;5072713;28;19920;-71
2023/08/12 13:14:34;;;;;;;;;;;;;;;;;;5072641;28;20026;-71
2023/08/12 13:17:00;;;;;;;;;;;;;;;;;;5072696;28;19913;-71
2023/08/12 13:19:25;;;;;;;;;;;;;;;;;;5072552;28;19909;-72
2023/08/12 13:21:51;;;;;;;;;;;;;;;;;;5072024;28;19948;-69
2023/08/12 13:24:16;;;;;;;;;;;;;;;;;;5072479;28;19912;-70
2023/08/12 13:26:42;;;;;;;;;;;;;;;;;;5072070;28;19955;-72
2023/08/12 13:29:08;;;;;;;;;;;;;;;;;;5054072;28;19912;-70
2023/08/12 13:31:34;;;;;;;;;;;;;;;;;;5072278;28;19999;-71
2023/08/12 13:33:59;;;;;;;;;;;;;;;;;;5071998;28;20054;-70
2023/08/12 13:36:25;;;;;;;;;;;;;;;;;;5071970;28;19919;-71
2023/08/12 13:38:50;;;;;;;;;;;;;;;;;;5071635;28;20491;-71
2023/08/12 13:41:16;;;;;;;;;;;;;;;;;;5071622;28;20331;-69
2023/08/12 13:43:41;;;;;;;;;;;;;;;;;;5071752;28;19908;-71
2023/08/12 13:46:07;;;;;;;;;;;;;;;;;;5051118;28;19938;-71
2023/08/12 13:48:32;;;;;;;;;;;;;;;;;;5070401;28;19935;-68
2023/08/12 13:50:58;;;;;;;;;;;;;;;;;;5071903;28;19916;-70
2023/08/12 13:53:24;;;;;;;;;;;;;;;;;;5071567;28;20269;-71
2023/08/12 13:55:49;;;;;;;;;;;;;;;;;;5071727;28;20007;-70
2023/08/12 13:58:15;;;;;;;;;;;;;;;;;;5071280;28;19908;-70
2023/08/12 14:00:40;;;;;;;;;;;;;;;;;;5053615;28;19912;-71
2023/08/12 14:03:06;;;;;;;;;;;;;;;;;;5071173;28;19958;-71
2023/08/12 14:05:31;;;;;;;;;;;;;;;;;;5071780;28;19912;-72
2023/08/12 14:07:57;;;;;;;;;;;;;;;;;;5071519;28;20325;-70
2023/08/12 14:10:22;;;;;;;;;;;;;;;;;;5071760;28;19955;-71
2023/08/12 14:12:48;;;;;;;;;;;;;;;;;;5071248;28;19912;-70
2023/08/12 14:15:14;;;;;;;;;;;;;;;;;;5071212;28;19932;-70
2023/08/12 14:17:40;;;;;;;;;;;;;;;;;;5071701;28;19908;-71
2023/08/12 14:20:07;;;;;;;;;;;;;;;;;;5071428;28;19973;-71
2023/08/12 14:22:36;;;;;;;;;;;;;;;;;;5071077;28;20006;-71
2023/08/12 14:25:03;;;;;;;;;;;;;;;;;;5071359;28;19958;-70
2023/08/12 14:27:29;;;;;;;;;;;;;;;;;;5071376;28;19971;-71
2023/08/12 14:29:54;;;;;;;;;;;;;;;;;;5071359;28;19940;-70
2023/08/12 14:32:20;;;;;;;;;;;;;;;;;;5063267;28;20290;-69
2023/08/12 14:34:46;;;;;;;;;;;;;;;;;;5053513;28;19962;-71
2023/08/12 14:37:12;;;;;;;;;;;;;;;;;;5069669;28;19912;-70
2023/08/12 14:39:38;;;;;;;;;;;;;;;;;;5053200;28;19919;-70
2023/08/12 14:42:04;;;;;;;;;;;;;;;;;;5071329;28;19963;-70
2023/08/12 14:44:31;;;;;;;;;;;;;;;;;;5071402;28;20364;-70
2023/08/12 14:46:58;;;;;;;;;;;;;;;;;;5071410;28;19959;-71
2023/08/12 14:49:24;;;;;;;;;;;;;;;;;;5071519;28;19939;-70
2023/08/12 14:51:50;;;;;;;;;;;;;;;;;;5071802;28;19909;-71
2023/08/12 14:54:15;;;;;;;;;;;;;;;;;;5074123;28;19912;-70
2023/08/12 14:56:41;;;;;;;;;;;;;;;;;;5074654;28;20431;-71
2023/08/12 14:59:06;;;;;;;;;;;;;;;;;;5074949;28;19916;-70
2023/08/12 15:01:32;;;;;;;;;;;;;;;;;;5075394;28;19949;-70
2023/08/12 15:03:59;;;;;;;;;;;;;;;;;;5074888;28;19939;-70
2023/08/12 15:06:24;;;;;;;;;;;;;;;;;;5074235;28;19908;-70
2023/08/12 15:08:50;;;;;;;;;;;;;;;;;;5074346;28;19923;-71
2023/08/12 15:11:15;;;;;;;;;;;;;;;;;;5074035;28;19909;-71